Airport View

Enter AWOS ICAO identifier for current METAR.

ex. KFNL

CYYD 290400Z 31002KT 25SM BKN060 OVC090 10/08 A3020 RMK SC5AC3 SLP238

29 Sep 2020 04:20

Other Area AWOS: CWPZ - CYXT - CZST

TAF CYYD 290038Z 2901/2906 33004KT P6SM BKN060 OVC090 TEMPO 2901/2906 P6SM -RA OVC060 RMK NXT FCST WILL BE ISSUED AT 291345Z